sensor_id;sensor_type;location;lat;lon;timestamp;pressure;altitude;pressure_sealevel;temperature;humidity
61318;BME280;47201;40.428;-8.436;2023-05-08T00:01:04;101469.41;;;13.95;100.00
61318;BME280;47201;40.428;-8.436;2023-05-08T00:03:05;101467.69;;;13.88;100.00
61318;BME280;47201;40.428;-8.436;2023-05-08T00:05:05;101469.47;;;13.83;100.00
61318;BME280;47201;40.428;-8.436;2023-05-08T00:07:06;101467.72;;;13.78;100.00
61318;BME280;47201;40.428;-8.436;2023-05-08T00:09:07;101456.34;;;13.73;100.00
61318;BME280;47201;40.428;-8.436;2023-05-08T00:11:07;101459.84;;;13.75;100.00
61318;BME280;47201;40.428;-8.436;2023-05-08T00:13:08;101456.34;;;13.81;100.00
61318;BME280;47201;40.428;-8.436;2023-05-08T00:15:08;101450.19;;;13.82;100.00
61318;BME280;47201;40.428;-8.436;2023-05-08T00:17:12;101455.44;;;13.90;100.00
61318;BME280;47201;40.428;-8.436;2023-05-08T00:19:12;101455.44;;;13.87;100.00
61318;BME280;47201;40.428;-8.436;2023-05-08T00:21:13;101448.47;;;13.78;100.00
61318;BME280;47201;40.428;-8.436;2023-05-08T00:23:13;101441.47;;;13.75;100.00
61318;BME280;47201;40.428;-8.436;2023-05-08T00:25:14;101451.09;;;13.81;100.00
61318;BME280;47201;40.428;-8.436;2023-05-08T00:27:14;101446.69;;;13.74;100.00
61318;BME280;47201;40.428;-8.436;2023-05-08T00:29:16;101437.97;;;13.64;100.00
61318;BME280;47201;40.428;-8.436;2023-05-08T00:31:17;101438.88;;;13.57;100.00
61318;BME280;47201;40.428;-8.436;2023-05-08T00:33:17;101442.41;;;13.46;100.00
61318;BME280;47201;40.428;-8.436;2023-05-08T00:35:18;101450.25;;;13.37;100.00
61318;BME280;47201;40.428;-8.436;2023-05-08T00:37:18;101446.75;;;13.29;100.00
61318;BME280;47201;40.428;-8.436;2023-05-08T00:39:19;101442.41;;;13.25;100.00
61318;BME280;47201;40.428;-8.436;2023-05-08T00:41:20;101442.38;;;13.18;100.00
61318;BME280;47201;40.428;-8.436;2023-05-08T00:43:21;101438.03;;;13.14;100.00
61318;BME280;47201;40.428;-8.436;2023-05-08T00:45:26;101432.78;;;13.17;100.00
61318;BME280;47201;40.428;-8.436;2023-05-08T00:47:32;101426.66;;;13.25;100.00
61318;BME280;47201;40.428;-8.436;2023-05-08T00:49:33;101426.63;;;13.26;100.00
61318;BME280;47201;40.428;-8.436;2023-05-08T00:51:35;101426.66;;;13.25;100.00
61318;BME280;47201;40.428;-8.436;2023-05-08T00:53:39;101438.91;;;13.21;100.00
61318;BME280;47201;40.428;-8.436;2023-05-08T00:55:40;101437.16;;;13.17;100.00
61318;BME280;47201;40.428;-8.436;2023-05-08T00:57:41;101440.66;;;13.08;100.00
61318;BME280;47201;40.428;-8.436;2023-05-08T00:59:43;101435.41;;;13.02;100.00
61318;BME280;47201;40.428;-8.436;2023-05-08T01:01:46;101426.66;;;12.95;100.00
61318;BME280;47201;40.428;-8.436;2023-05-08T01:03:48;101410.03;;;12.98;100.00
61318;BME280;47201;40.428;-8.436;2023-05-08T01:05:49;101409.16;;;13.00;100.00
61318;BME280;47201;40.428;-8.436;2023-05-08T01:07:49;101410.91;;;13.08;100.00
61318;BME280;47201;40.428;-8.436;2023-05-08T01:09:50;101414.41;;;13.10;100.00
61318;BME280;47201;40.428;-8.436;2023-05-08T01:12:11;101409.16;;;13.19;100.00
61318;BME280;47201;40.428;-8.436;2023-05-08T01:21:22;101406.50;;;13.22;100.00
61318;BME280;47201;40.428;-8.436;2023-05-08T01:23:29;101396.91;;;13.07;100.00
61318;BME280;47201;40.428;-8.436;2023-05-08T01:32:33;101371.56;;;12.89;100.00
61318;BME280;47201;40.428;-8.436;2023-05-08T01:34:35;101374.16;;;12.91;100.00
61318;BME280;47201;40.428;-8.436;2023-05-08T01:36:43;101367.19;;;12.87;100.00
61318;BME280;47201;40.428;-8.436;2023-05-08T01:41:12;101354.94;;;12.95;100.00
61318;BME280;47201;40.428;-8.436;2023-05-08T01:45:25;101348.75;;;13.11;100.00
61318;BME280;47201;40.428;-8.436;2023-05-08T01:47:28;101348.75;;;13.16;100.00
61318;BME280;47201;40.428;-8.436;2023-05-08T01:49:33;101347.03;;;13.09;100.00
61318;BME280;47201;40.428;-8.436;2023-05-08T01:51:36;101345.28;;;13.03;100.00
61318;BME280;47201;40.428;-8.436;2023-05-08T01:54:01;101340.94;;;12.97;100.00
61318;BME280;47201;40.428;-8.436;2023-05-08T01:56:02;101346.16;;;12.85;100.00
61318;BME280;47201;40.428;-8.436;2023-05-08T01:58:06;101345.31;;;12.74;100.00
61318;BME280;47201;40.428;-8.436;2023-05-08T02:00:08;101343.56;;;12.63;100.00
61318;BME280;47201;40.428;-8.436;2023-05-08T02:02:12;101348.81;;;12.56;100.00
61318;BME280;47201;40.428;-8.436;2023-05-08T02:04:13;101339.19;;;12.50;100.00
61318;BME280;47201;40.428;-8.436;2023-05-08T02:06:14;101326.06;;;12.50;100.00
61318;BME280;47201;40.428;-8.436;2023-05-08T02:08:19;101319.97;;;12.54;100.00
61318;BME280;47201;40.428;-8.436;2023-05-08T02:10:20;101308.59;;;12.53;100.00
61318;BME280;47201;40.428;-8.436;2023-05-08T02:12:23;101306.84;;;12.60;100.00
61318;BME280;47201;40.428;-8.436;2023-05-08T02:14:25;101304.22;;;12.62;100.00
61318;BME280;47201;40.428;-8.436;2023-05-08T02:16:26;101304.22;;;12.73;100.00
61318;BME280;47201;40.428;-8.436;2023-05-08T02:18:28;101306.84;;;12.80;100.00
61318;BME280;47201;40.428;-8.436;2023-05-08T02:20:31;101306.84;;;12.82;100.00
61318;BME280;47201;40.428;-8.436;2023-05-08T02:22:32;101315.59;;;12.79;100.00
61318;BME280;47201;40.428;-8.436;2023-05-08T02:24:34;101317.34;;;12.73;100.00
61318;BME280;47201;40.428;-8.436;2023-05-08T02:26:36;101316.47;;;12.64;100.00
61318;BME280;47201;40.428;-8.436;2023-05-08T02:28:37;101318.22;;;12.59;100.00
61318;BME280;47201;40.428;-8.436;2023-05-08T02:30:38;101317.34;;;12.54;100.00
61318;BME280;47201;40.428;-8.436;2023-05-08T02:32:41;101319.97;;;12.46;100.00
61318;BME280;47201;40.428;-8.436;2023-05-08T02:34:42;101311.22;;;12.40;100.00
61318;BME280;47201;40.428;-8.436;2023-05-08T02:36:43;101315.59;;;12.36;100.00
61318;BME280;47201;40.428;-8.436;2023-05-08T02:38:46;101314.72;;;12.35;100.00
61318;BME280;47201;40.428;-8.436;2023-05-08T02:40:49;101320.81;;;12.34;100.00
61318;BME280;47201;40.428;-8.436;2023-05-08T02:42:51;101310.34;;;12.28;100.00
61318;BME280;47201;40.428;-8.436;2023-05-08T02:44:52;101311.19;;;12.27;100.00
61318;BME280;47201;40.428;-8.436;2023-05-08T02:46:57;101325.16;;;12.20;100.00
61318;BME280;47201;40.428;-8.436;2023-05-08T02:49:00;101324.28;;;12.12;100.00
61318;BME280;47201;40.428;-8.436;2023-05-08T02:51:28;101337.41;;;12.09;100.00
61318;BME280;47201;40.428;-8.436;2023-05-08T02:53:32;101340.00;;;11.99;100.00
61318;BME280;47201;40.428;-8.436;2023-05-08T02:55:45;101337.31;;;11.96;100.00
61318;BME280;47201;40.428;-8.436;2023-05-08T02:57:51;101352.22;;;11.99;100.00
61318;BME280;47201;40.428;-8.436;2023-05-08T02:59:58;101357.47;;;12.02;100.00
61318;BME280;47201;40.428;-8.436;2023-05-08T03:02:05;101355.72;;;12.04;100.00
61318;BME280;47201;40.428;-8.436;2023-05-08T03:04:13;101352.22;;;12.06;100.00
61318;BME280;47201;40.428;-8.436;2023-05-08T03:06:17;101357.47;;;12.08;100.00
61318;BME280;47201;40.428;-8.436;2023-05-08T03:08:40;101355.72;;;12.12;100.00
61318;BME280;47201;40.428;-8.436;2023-05-08T03:10:41;101367.09;;;12.21;100.00
61318;BME280;47201;40.428;-8.436;2023-05-08T03:12:45;101368.91;;;12.30;100.00
61318;BME280;47201;40.428;-8.436;2023-05-08T03:15:05;101369.78;;;12.34;100.00
61318;BME280;47201;40.428;-8.436;2023-05-08T03:17:08;101376.78;;;12.35;100.00
61318;BME280;47201;40.428;-8.436;2023-05-08T03:19:19;101385.50;;;12.37;100.00
61318;BME280;47201;40.428;-8.436;2023-05-08T03:21:20;101381.16;;;12.36;100.00
61318;BME280;47201;40.428;-8.436;2023-05-08T03:23:23;101386.41;;;12.42;100.00
61318;BME280;47201;40.428;-8.436;2023-05-08T03:25:25;101389.03;;;12.42;100.00
61318;BME280;47201;40.428;-8.436;2023-05-08T03:27:28;101384.63;;;12.38;100.00
61318;BME280;47201;40.428;-8.436;2023-05-08T03:29:29;101389.00;;;12.33;100.00
61318;BME280;47201;40.428;-8.436;2023-05-08T03:31:30;101395.97;;;12.32;100.00
61318;BME280;47201;40.428;-8.436;2023-05-08T03:33:31;101398.59;;;12.31;100.00
61318;BME280;47201;40.428;-8.436;2023-05-08T03:35:35;101400.31;;;12.29;100.00
61318;BME280;47201;40.428;-8.436;2023-05-08T03:37:37;101395.97;;;12.31;100.00
61318;BME280;47201;40.428;-8.436;2023-05-08T03:39:37;101391.56;;;12.25;100.00
61318;BME280;47201;40.428;-8.436;2023-05-08T03:41:38;101395.97;;;12.28;100.00
61318;BME280;47201;40.428;-8.436;2023-05-08T03:43:42;101398.56;;;12.20;100.00
61318;BME280;47201;40.428;-8.436;2023-05-08T03:45:43;101389.81;;;12.16;100.00
61318;BME280;47201;40.428;-8.436;2023-05-08T03:47:44;101392.47;;;12.19;100.00
61318;BME280;47201;40.428;-8.436;2023-05-08T03:49:46;101399.44;;;12.11;100.00
61318;BME280;47201;40.428;-8.436;2023-05-08T03:51:47;101398.50;;;11.97;100.00
61318;BME280;47201;40.428;-8.436;2023-05-08T03:53:48;101389.69;;;11.87;100.00
61318;BME280;47201;40.428;-8.436;2023-05-08T03:55:49;101387.03;;;11.76;100.00
61318;BME280;47201;40.428;-8.436;2023-05-08T03:57:55;101389.59;;;11.67;100.00
61318;BME280;47201;40.428;-8.436;2023-05-08T04:00:05;101382.56;;;11.55;100.00
61318;BME280;47201;40.428;-8.436;2023-05-08T04:02:32;101383.38;;;11.45;100.00
61318;BME280;47201;40.428;-8.436;2023-05-08T04:04:39;101379.81;;;11.32;100.00
61318;BME280;47201;40.428;-8.436;2023-05-08T04:06:44;101379.78;;;11.29;100.00
61318;BME280;47201;40.428;-8.436;2023-05-08T04:09:12;101382.41;;;11.29;100.00
61318;BME280;47201;40.428;-8.436;2023-05-08T04:11:21;101377.25;;;11.41;100.00
61318;BME280;47201;40.428;-8.436;2023-05-08T04:13:26;101372.03;;;11.42;100.00
61318;BME280;47201;40.428;-8.436;2023-05-08T04:15:29;101365.03;;;11.41;100.00
61318;BME280;47201;40.428;-8.436;2023-05-08T04:19:42;101358.94;;;11.46;100.00
61318;BME280;47201;40.428;-8.436;2023-05-08T04:21:44;101357.22;;;11.46;100.00
61318;BME280;47201;40.428;-8.436;2023-05-08T04:23:47;101361.53;;;11.41;100.00
61318;BME280;47201;40.428;-8.436;2023-05-08T04:25:50;101362.41;;;11.40;100.00
61318;BME280;47201;40.428;-8.436;2023-05-08T04:27:52;101368.50;;;11.36;100.00
61318;BME280;47201;40.428;-8.436;2023-05-08T04:29:55;101372.06;;;11.49;100.00
61318;BME280;47201;40.428;-8.436;2023-05-08T04:31:57;101372.94;;;11.52;100.00
61318;BME280;47201;40.428;-8.436;2023-05-08T04:34:00;101369.50;;;11.59;100.00
61318;BME280;47201;40.428;-8.436;2023-05-08T04:36:01;101364.22;;;11.56;100.00
61318;BME280;47201;40.428;-8.436;2023-05-08T04:38:02;101376.44;;;11.53;100.00
61318;BME280;47201;40.428;-8.436;2023-05-08T04:40:03;101367.78;;;11.71;100.00
61318;BME280;47201;40.428;-8.436;2023-05-08T04:42:06;101372.19;;;11.78;100.00
61318;BME280;47201;40.428;-8.436;2023-05-08T04:44:08;101364.34;;;11.75;100.00
61318;BME280;47201;40.428;-8.436;2023-05-08T04:46:11;101363.41;;;11.70;100.00
61318;BME280;47201;40.428;-8.436;2023-05-08T04:48:13;101368.69;;;11.78;100.00
61318;BME280;47201;40.428;-8.436;2023-05-08T04:50:13;101358.25;;;11.88;100.00
61318;BME280;47201;40.428;-8.436;2023-05-08T04:52:14;101356.53;;;11.92;100.00
61318;BME280;47201;40.428;-8.436;2023-05-08T04:54:15;101350.41;;;11.91;100.00
61318;BME280;47201;40.428;-8.436;2023-05-08T04:56:15;101367.88;;;11.91;100.00
61318;BME280;47201;40.428;-8.436;2023-05-08T04:58:16;101370.47;;;11.85;100.00
61318;BME280;47201;40.428;-8.436;2023-05-08T05:00:17;101366.06;;;11.79;100.00
61318;BME280;47201;40.428;-8.436;2023-05-08T05:02:19;101366.06;;;11.73;100.00
61318;BME280;47201;40.428;-8.436;2023-05-08T05:04:21;101380.00;;;11.73;100.00
61318;BME280;47201;40.428;-8.436;2023-05-08T05:06:22;101385.25;;;11.69;100.00
61318;BME280;47201;40.428;-8.436;2023-05-08T05:08:23;101398.31;;;11.67;100.00
61318;BME280;47201;40.428;-8.436;2023-05-08T05:10:23;101402.69;;;11.64;100.00
61318;BME280;47201;40.428;-8.436;2023-05-08T05:12:24;101407.88;;;11.59;100.00
61318;BME280;47201;40.428;-8.436;2023-05-08T05:14:25;101400.88;;;11.55;100.00
61318;BME280;47201;40.428;-8.436;2023-05-08T05:16:25;101400.91;;;11.53;100.00
61318;BME280;47201;40.428;-8.436;2023-05-08T05:18:26;101407.84;;;11.54;100.00
61318;BME280;47201;40.428;-8.436;2023-05-08T05:20:28;101413.13;;;11.59;100.00
61318;BME280;47201;40.428;-8.436;2023-05-08T05:22:28;101417.50;;;11.58;100.00
61318;BME280;47201;40.428;-8.436;2023-05-08T05:24:29;101419.22;;;11.56;100.00
61318;BME280;47201;40.428;-8.436;2023-05-08T05:26:30;101421.81;;;11.52;100.00
61318;BME280;47201;40.428;-8.436;2023-05-08T05:28:32;101436.63;;;11.48;100.00
61318;BME280;47201;40.428;-8.436;2023-05-08T05:30:33;101441.00;;;11.51;100.00
61318;BME280;47201;40.428;-8.436;2023-05-08T05:32:33;101452.44;;;11.61;100.00
61318;BME280;47201;40.428;-8.436;2023-05-08T05:34:34;101450.72;;;11.66;100.00
61318;BME280;47201;40.428;-8.436;2023-05-08T05:36:34;101455.97;;;11.72;100.00
61318;BME280;47201;40.428;-8.436;2023-05-08T05:38:36;101455.16;;;11.78;100.00
61318;BME280;47201;40.428;-8.436;2023-05-08T05:40:37;101459.53;;;11.85;100.00
61318;BME280;47201;40.428;-8.436;2023-05-08T05:42:37;101460.38;;;11.81;100.00
61318;BME280;47201;40.428;-8.436;2023-05-08T05:44:38;101463.00;;;11.79;100.00
61318;BME280;47201;40.428;-8.436;2023-05-08T05:46:38;101461.25;;;11.78;100.00
61318;BME280;47201;40.428;-8.436;2023-05-08T05:48:39;101476.97;;;11.77;100.00
61318;BME280;47201;40.428;-8.436;2023-05-08T05:50:42;101482.19;;;11.77;100.00
61318;BME280;47201;40.428;-8.436;2023-05-08T05:52:42;101484.84;;;11.81;100.00
61318;BME280;47201;40.428;-8.436;2023-05-08T05:54:43;101476.16;;;11.87;100.00
61318;BME280;47201;40.428;-8.436;2023-05-08T05:56:45;101484.97;;;11.98;100.00
61318;BME280;47201;40.428;-8.436;2023-05-08T05:58:46;101486.78;;;12.12;100.00
61318;BME280;47201;40.428;-8.436;2023-05-08T06:00:47;101489.44;;;12.22;100.00
61318;BME280;47201;40.428;-8.436;2023-05-08T06:02:47;101500.00;;;12.43;100.00
61318;BME280;47201;40.428;-8.436;2023-05-08T06:04:50;101492.16;;;12.55;100.00
61318;BME280;47201;40.428;-8.436;2023-05-08T06:06:51;101489.56;;;12.64;100.00
61318;BME280;47201;40.428;-8.436;2023-05-08T06:08:51;101486.97;;;12.69;100.00
61318;BME280;47201;40.428;-8.436;2023-05-08T06:10:52;101493.09;;;12.79;100.00
61318;BME280;47201;40.428;-8.436;2023-05-08T06:12:52;101491.38;;;12.84;100.00
61318;BME280;47201;40.428;-8.436;2023-05-08T06:14:54;101486.16;;;12.95;100.00
61318;BME280;47201;40.428;-8.436;2023-05-08T06:16:54;101480.03;;;12.99;100.00
61318;BME280;47201;40.428;-8.436;2023-05-08T06:18:55;101480.91;;;13.07;100.00
61318;BME280;47201;40.428;-8.436;2023-05-08T06:20:56;101476.53;;;13.15;100.00
61318;BME280;47201;40.428;-8.436;2023-05-08T06:22:57;101469.50;;;13.27;100.00
61318;BME280;47201;40.428;-8.436;2023-05-08T06:24:57;101467.75;;;13.35;100.00
61318;BME280;47201;40.428;-8.436;2023-05-08T06:26:58;101456.41;;;13.52;100.00
61318;BME280;47201;40.428;-8.436;2023-05-08T06:28:58;101457.22;;;13.63;100.00
61318;BME280;47201;40.428;-8.436;2023-05-08T06:30:59;101449.34;;;13.75;100.00
61318;BME280;47201;40.428;-8.436;2023-05-08T06:32:59;101440.53;;;13.84;100.00
61318;BME280;47201;40.428;-8.436;2023-05-08T06:35:00;101430.00;;;13.90;100.00
61318;BME280;47201;40.428;-8.436;2023-05-08T06:37:00;101418.63;;;13.94;100.00
61318;BME280;47201;40.428;-8.436;2023-05-08T06:39:04;101414.22;;;13.96;100.00
61318;BME280;47201;40.428;-8.436;2023-05-08T06:41:07;101422.09;;;14.03;100.00
61318;BME280;47201;40.428;-8.436;2023-05-08T06:43:08;101420.25;;;14.16;100.00
61318;BME280;47201;40.428;-8.436;2023-05-08T06:45:08;101423.75;;;14.21;100.00
61318;BME280;47201;40.428;-8.436;2023-05-08T06:47:12;101421.97;;;14.29;100.00
61318;BME280;47201;40.428;-8.436;2023-05-08T06:49:12;101420.09;;;14.42;100.00
61318;BME280;47201;40.428;-8.436;2023-05-08T06:51:13;101419.19;;;14.55;100.00
61318;BME280;47201;40.428;-8.436;2023-05-08T06:53:14;101405.91;;;14.72;100.00
61318;BME280;47201;40.428;-8.436;2023-05-08T06:55:14;101409.31;;;14.87;100.00
61318;BME280;47201;40.428;-8.436;2023-05-08T06:57:15;101407.31;;;15.14;100.00
61318;BME280;47201;40.428;-8.436;2023-05-08T06:59:16;101409.63;;;15.48;100.00
61318;BME280;47201;40.428;-8.436;2023-05-08T07:01:17;101409.25;;;15.79;100.00
61318;BME280;47201;40.428;-8.436;2023-05-08T07:03:17;101411.44;;;16.19;100.00
61318;BME280;47201;40.428;-8.436;2023-05-08T07:05:18;101419.41;;;16.75;100.00
61318;BME280;47201;40.428;-8.436;2023-05-08T07:07:19;101419.00;;;17.50;100.00
61318;BME280;47201;40.428;-8.436;2023-05-08T07:09:19;101428.63;;;18.41;100.00
61318;BME280;47201;40.428;-8.436;2023-05-08T07:11:20;101431.34;;;19.13;99.87
61318;BME280;47201;40.428;-8.436;2023-05-08T07:13:20;101440.28;;;19.75;94.47
61318;BME280;47201;40.428;-8.436;2023-05-08T07:15:21;101442.84;;;20.39;89.13
61318;BME280;47201;40.428;-8.436;2023-05-08T07:17:21;101436.59;;;20.97;85.26
61318;BME280;47201;40.428;-8.436;2023-05-08T07:19:22;101439.19;;;21.51;79.21
61318;BME280;47201;40.428;-8.436;2023-05-08T07:21:22;101434.25;;;21.91;76.83
61318;BME280;47201;40.428;-8.436;2023-05-08T07:23:23;101437.31;;;22.03;75.48
61318;BME280;47201;40.428;-8.436;2023-05-08T07:25:23;101448.97;;;21.99;74.32
61318;BME280;47201;40.428;-8.436;2023-05-08T07:27:24;101444.47;;;21.78;75.09
61318;BME280;47201;40.428;-8.436;2023-05-08T07:29:25;101438.47;;;21.71;75.20
61318;BME280;47201;40.428;-8.436;2023-05-08T07:31:26;101436.81;;;21.68;75.42
61318;BME280;47201;40.428;-8.436;2023-05-08T07:33:26;101439.44;;;21.70;74.78
61318;BME280;47201;40.428;-8.436;2023-05-08T07:35:27;101447.53;;;21.91;74.38
61318;BME280;47201;40.428;-8.436;2023-05-08T07:37:28;101434.91;;;22.65;71.25
61318;BME280;47201;40.428;-8.436;2023-05-08T07:39:29;101431.53;;;23.67;67.32
61318;BME280;47201;40.428;-8.436;2023-05-08T07:41:32;101449.38;;;24.62;62.08
61318;BME280;47201;40.428;-8.436;2023-05-08T07:43:36;101452.94;;;25.52;58.05
61318;BME280;47201;40.428;-8.436;2023-05-08T07:45:38;101441.78;;;26.42;55.99
61318;BME280;47201;40.428;-8.436;2023-05-08T07:47:57;101458.38;;;27.71;52.59
61318;BME280;47201;40.428;-8.436;2023-05-08T07:50:04;101462.50;;;28.89;48.77
61318;BME280;47201;40.428;-8.436;2023-05-08T07:52:06;101467.91;;;29.55;47.91
61318;BME280;47201;40.428;-8.436;2023-05-08T07:54:07;101462.59;;;29.28;48.75
61318;BME280;47201;40.428;-8.436;2023-05-08T07:56:10;101467.25;;;29.65;49.89
61318;BME280;47201;40.428;-8.436;2023-05-08T07:58:11;101465.00;;;29.33;50.71
61318;BME280;47201;40.428;-8.436;2023-05-08T08:00:12;101465.63;;;29.49;51.41
61318;BME280;47201;40.428;-8.436;2023-05-08T08:04:36;101472.28;;;28.36;56.17
61318;BME280;47201;40.428;-8.436;2023-05-08T08:06:38;101469.31;;;28.11;57.00
61318;BME280;47201;40.428;-8.436;2023-05-08T08:08:40;101468.44;;;28.67;56.27
61318;BME280;47201;40.428;-8.436;2023-05-08T08:10:42;101468.78;;;29.03;55.87
61318;BME280;47201;40.428;-8.436;2023-05-08T08:12:45;101474.06;;;29.04;57.33
61318;BME280;47201;40.428;-8.436;2023-05-08T08:14:46;101467.63;;;28.79;57.38
61318;BME280;47201;40.428;-8.436;2023-05-08T08:16:47;101456.84;;;28.25;60.07
61318;BME280;47201;40.428;-8.436;2023-05-08T08:18:47;101458.84;;;28.36;60.67
61318;BME280;47201;40.428;-8.436;2023-05-08T08:20:48;101463.06;;;28.25;61.14
61318;BME280;47201;40.428;-8.436;2023-05-08T08:22:50;101460.28;;;28.27;61.20
61318;BME280;47201;40.428;-8.436;2023-05-08T08:24:53;101459.53;;;28.25;61.54
61318;BME280;47201;40.428;-8.436;2023-05-08T08:26:55;101464.63;;;28.29;61.36
61318;BME280;47201;40.428;-8.436;2023-05-08T08:28:57;101452.63;;;28.48;61.00
61318;BME280;47201;40.428;-8.436;2023-05-08T08:33:38;101466.38;;;29.77;59.54
61318;BME280;47201;40.428;-8.436;2023-05-08T08:35:39;101464.94;;;30.10;59.05
61318;BME280;47201;40.428;-8.436;2023-05-08T08:43:36;101457.31;;;33.36;54.41
61318;BME280;47201;40.428;-8.436;2023-05-08T08:48:39;101443.69;;;32.52;60.43
61318;BME280;47201;40.428;-8.436;2023-05-08T08:50:42;101444.81;;;32.70;61.10
61318;BME280;47201;40.428;-8.436;2023-05-08T08:52:49;101451.25;;;33.44;60.41
61318;BME280;47201;40.428;-8.436;2023-05-08T08:54:51;101453.72;;;34.29;59.19
61318;BME280;47201;40.428;-8.436;2023-05-08T08:56:54;101462.19;;;34.45;59.91
61318;BME280;47201;40.428;-8.436;2023-05-08T08:58:57;101458.22;;;34.50;60.84
61318;BME280;47201;40.428;-8.436;2023-05-08T09:00:59;101449.78;;;34.62;62.02
61318;BME280;47201;40.428;-8.436;2023-05-08T09:03:01;101454.75;;;34.67;62.84
61318;BME280;47201;40.428;-8.436;2023-05-08T09:05:01;101451.09;;;33.98;64.77
61318;BME280;47201;40.428;-8.436;2023-05-08T09:07:04;101446.63;;;34.87;63.78
61318;BME280;47201;40.428;-8.436;2023-05-08T09:09:04;101439.69;;;35.51;63.52
61318;BME280;47201;40.428;-8.436;2023-05-08T09:11:05;101440.50;;;34.55;64.92
61318;BME280;47201;40.428;-8.436;2023-05-08T09:13:06;101438.22;;;35.00;65.21
61318;BME280;47201;40.428;-8.436;2023-05-08T09:15:06;101430.06;;;34.90;66.23
61318;BME280;47201;40.428;-8.436;2023-05-08T09:17:07;101425.16;;;35.61;65.44
61318;BME280;47201;40.428;-8.436;2023-05-08T09:19:08;101423.75;;;35.09;66.98
61318;BME280;47201;40.428;-8.436;2023-05-08T09:21:09;101421.13;;;35.27;66.72
61318;BME280;47201;40.428;-8.436;2023-05-08T09:23:10;101421.59;;;35.13;66.58
61318;BME280;47201;40.428;-8.436;2023-05-08T09:25:11;101423.34;;;34.64;68.05
61318;BME280;47201;40.428;-8.436;2023-05-08T09:27:21;101415.94;;;35.44;67.23
61318;BME280;47201;40.428;-8.436;2023-05-08T09:29:22;101418.31;;;35.09;67.69
61318;BME280;47201;40.428;-8.436;2023-05-08T09:31:33;101415.34;;;35.50;68.26
61318;BME280;47201;40.428;-8.436;2023-05-08T09:33:34;101412.59;;;35.12;68.74
61318;BME280;47201;40.428;-8.436;2023-05-08T09:35:44;101403.94;;;35.36;69.28
61318;BME280;47201;40.428;-8.436;2023-05-08T09:37:48;101407.22;;;35.78;68.48
61318;BME280;47201;40.428;-8.436;2023-05-08T09:39:50;101414.75;;;35.94;67.92
61318;BME280;47201;40.428;-8.436;2023-05-08T09:41:57;101409.03;;;36.33;67.20
61318;BME280;47201;40.428;-8.436;2023-05-08T09:44:00;101404.88;;;36.11;67.67
61318;BME280;47201;40.428;-8.436;2023-05-08T09:48:37;101418.66;;;36.99;67.40
61318;BME280;47201;40.428;-8.436;2023-05-08T09:50:38;101420.63;;;36.53;67.77
61318;BME280;47201;40.428;-8.436;2023-05-08T09:52:44;101427.72;;;35.72;69.54
61318;BME280;47201;40.428;-8.436;2023-05-08T09:54:47;101423.06;;;35.92;70.09
61318;BME280;47201;40.428;-8.436;2023-05-08T09:56:48;101438.44;;;36.29;69.23
61318;BME280;47201;40.428;-8.436;2023-05-08T09:58:49;101442.59;;;36.05;69.84
61318;BME280;47201;40.428;-8.436;2023-05-08T10:00:49;101442.09;;;36.38;69.10
61318;BME280;47201;40.428;-8.436;2023-05-08T10:02:57;101455.25;;;36.79;68.59
61318;BME280;47201;40.428;-8.436;2023-05-08T10:04:58;101461.44;;;36.35;69.25
61318;BME280;47201;40.428;-8.436;2023-05-08T10:06:59;101466.69;;;36.46;69.15
61318;BME280;47201;40.428;-8.436;2023-05-08T10:09:10;101471.81;;;34.99;71.56
61318;BME280;47201;40.428;-8.436;2023-05-08T10:11:15;101465.63;;;34.57;72.66
61318;BME280;47201;40.428;-8.436;2023-05-08T10:13:16;101463.59;;;35.48;71.25
61318;BME280;47201;40.428;-8.436;2023-05-08T10:15:16;101462.16;;;35.81;71.20
61318;BME280;47201;40.428;-8.436;2023-05-08T10:17:19;101463.97;;;36.00;71.41
61318;BME280;47201;40.428;-8.436;2023-05-08T10:19:21;101460.53;;;36.80;70.24
61318;BME280;47201;40.428;-8.436;2023-05-08T10:21:22;101453.84;;;36.57;70.86
61318;BME280;47201;40.428;-8.436;2023-05-08T10:23:24;101446.13;;;36.34;71.33
61318;BME280;47201;40.428;-8.436;2023-05-08T10:25:25;101454.44;;;36.32;71.15
61318;BME280;47201;40.428;-8.436;2023-05-08T10:27:32;101465.81;;;36.00;71.73
61318;BME280;47201;40.428;-8.436;2023-05-08T10:29:40;101471.09;;;35.64;72.37
61318;BME280;47201;40.428;-8.436;2023-05-08T10:31:41;101469.63;;;34.83;73.63
61318;BME280;47201;40.428;-8.436;2023-05-08T10:33:44;101463.78;;;34.77;73.54
61318;BME280;47201;40.428;-8.436;2023-05-08T10:35:48;101467.97;;;34.21;74.36
61318;BME280;47201;40.428;-8.436;2023-05-08T10:37:49;101472.66;;;34.99;73.72
61318;BME280;47201;40.428;-8.436;2023-05-08T10:39:51;101472.34;;;34.43;74.54
61318;BME280;47201;40.428;-8.436;2023-05-08T10:41:53;101460.84;;;35.38;73.29
61318;BME280;47201;40.428;-8.436;2023-05-08T10:43:54;101461.81;;;36.04;72.65
61318;BME280;47201;40.428;-8.436;2023-05-08T10:45:55;101456.44;;;35.37;72.71
61318;BME280;47201;40.428;-8.436;2023-05-08T10:50:14;101467.78;;;35.13;73.36
61318;BME280;47201;40.428;-8.436;2023-05-08T10:52:23;101475.50;;;35.17;74.19
61318;BME280;47201;40.428;-8.436;2023-05-08T10:54:33;101473.44;;;33.90;75.17
61318;BME280;47201;40.428;-8.436;2023-05-08T10:56:36;101462.06;;;34.47;74.61
61318;BME280;47201;40.428;-8.436;2023-05-08T10:58:37;101468.06;;;34.80;74.18
61318;BME280;47201;40.428;-8.436;2023-05-08T11:03:03;101456.53;;;33.46;76.40
61318;BME280;47201;40.428;-8.436;2023-05-08T11:05:17;101458.91;;;33.18;76.87
61318;BME280;47201;40.428;-8.436;2023-05-08T11:07:17;101461.81;;;33.78;76.25
61318;BME280;47201;40.428;-8.436;2023-05-08T11:09:22;101470.28;;;33.85;75.90